Time;durP1;ratioP1;P1;durP2;ratioP2;P2;SDS_P1;SDS_P2;PMS_P1;PMS_P2;Temp;Humidity;BMP_temperature;BMP_pressure;BME280_temperature;BME280_humidity;BME280_pressure;Samples;Min_cycle;Max_cycle;Signal;HPM_P1;HPM_P2
2022/02/21 00:00:25;;;;;;;;;;;;;;;18.42;55.55;100625.88;2052611;28;20286;-47
2022/02/21 00:01:26;;;;;;;;;;;;;;;18.42;55.51;100609.50;2045346;28;19922;-47
2022/02/21 00:02:26;;;;;;;;;;;;;;;18.44;55.55;100587.53;2044816;28;19940;-46
2022/02/21 00:03:27;;;;;;;;;;;;;;;18.42;55.55;100568.56;2049415;28;20370;-48
2022/02/21 00:04:30;;;;;;;;;;;;;;;18.42;55.70;100568.56;2059042;28;21175;-46
2022/02/21 00:05:30;;;;;;;;;;;;;;;18.41;55.60;100561.34;2061618;28;19925;-46
2022/02/21 00:06:31;;;;;;;;;;;;;;;18.43;55.53;100564.81;2059623;28;20602;-46
2022/02/21 00:07:31;;;;;;;;;;;;;;;18.42;55.56;100576.75;2060474;28;19960;-46
2022/02/21 00:08:31;;;;;;;;;;;;;;;18.43;55.48;100578.47;2062506;28;20316;-47
2022/02/21 00:09:32;;;;;;;;;;;;;;;18.43;55.56;100580.34;2058348;28;19975;-45
2022/02/21 00:10:32;;;;;;;;;;;;;;;18.43;55.47;100594.84;2060600;28;19922;-46
2022/02/21 00:11:33;;;;;;;;;;;;;;;18.45;55.56;100593.84;2060075;28;19921;-46
2022/02/21 00:12:34;;;;;;;;;;;;;;;18.45;55.50;100599.28;2058876;28;19917;-46
2022/02/21 00:13:35;;;;;;;;;;;;;;;18.45;55.47;100592.00;2060783;28;20272;-46
2022/02/21 00:14:36;;;;;;;;;;;;;;;18.45;55.43;100583.81;2058304;28;19917;-47
2022/02/21 00:15:36;;;;;;;;;;;;;;;18.47;55.45;100591.84;2061130;28;20032;-46
2022/02/21 00:16:37;;;;;;;;;;;;;;;18.46;55.49;100601.03;2062090;28;19926;-47
2022/02/21 00:17:37;;;;;;;;;;;;;;;18.47;55.60;100591.84;2056417;28;19925;-48
2022/02/21 00:18:37;;;;;;;;;;;;;;;18.47;55.62;100591.84;2052449;28;19975;-46
2022/02/21 00:19:37;;;;;;;;;;;;;;;18.44;55.56;100598.44;2051849;28;20272;-47
2022/02/21 00:20:38;;;;;;;;;;;;;;;18.46;55.48;100601.03;2059650;28;20764;-50
2022/02/21 00:21:38;;;;;;;;;;;;;;;18.46;55.57;100595.59;2059960;28;20202;-47
2022/02/21 00:22:38;;;;;;;;;;;;;;;18.44;55.46;100590.25;2058700;28;20333;-48
2022/02/21 00:23:39;;;;;;;;;;;;;;;18.46;55.53;100595.59;2060294;28;20240;-47
2022/02/21 00:24:39;;;;;;;;;;;;;;;18.43;55.58;100597.56;2061345;28;19921;-48
2022/02/21 00:25:39;;;;;;;;;;;;;;;18.46;55.42;100596.44;2057493;28;19936;-47
2022/02/21 00:26:39;;;;;;;;;;;;;;;18.44;55.44;100592.97;2061308;28;20238;-47
2022/02/21 00:27:41;;;;;;;;;;;;;;;18.43;55.71;100592.13;2060410;28;19921;-50
2022/02/21 00:28:41;;;;;;;;;;;;;;;18.43;55.48;100597.56;2060481;28;19955;-47
2022/02/21 00:29:42;;;;;;;;;;;;;;;18.41;55.69;100583.19;2060552;28;19921;-47
2022/02/21 00:30:42;;;;;;;;;;;;;;;18.42;55.65;100579.47;2058985;28;19925;-46
2022/02/21 00:31:42;;;;;;;;;;;;;;;18.40;55.70;100586.94;2061053;28;19910;-47
2022/02/21 00:32:43;;;;;;;;;;;;;;;18.40;55.54;100581.47;2059700;28;19953;-46
2022/02/21 00:33:43;;;;;;;;;;;;;;;18.40;55.53;100586.94;2059983;28;19947;-47
2022/02/21 00:34:43;;;;;;;;;;;;;;;18.38;55.75;100583.47;2061109;28;19925;-48
2022/02/21 00:35:43;;;;;;;;;;;;;;;18.38;55.63;100588.94;2059350;28;20710;-48
2022/02/21 00:36:44;;;;;;;;;;;;;;;18.38;55.68;100588.94;2059899;28;19975;-46
2022/02/21 00:37:44;;;;;;;;;;;;;;;18.38;55.67;100582.59;2061339;28;20124;-46
2022/02/21 00:38:44;;;;;;;;;;;;;;;18.38;55.62;100588.06;2059113;28;19922;-47
2022/02/21 00:39:44;;;;;;;;;;;;;;;18.37;55.63;100587.22;2060695;28;20316;-48
2022/02/21 00:40:45;;;;;;;;;;;;;;;18.37;55.81;100589.94;2059502;28;20007;-47
2022/02/21 00:41:45;;;;;;;;;;;;;;;18.36;55.68;100585.47;2060130;28;19917;-47
2022/02/21 00:42:45;;;;;;;;;;;;;;;18.37;55.79;100592.66;2059655;28;19925;-48
2022/02/21 00:43:46;;;;;;;;;;;;;;;18.37;55.71;100586.31;2058987;28;19926;-46
2022/02/21 00:44:47;;;;;;;;;;;;;;;18.37;55.75;100581.75;2050660;28;19922;-47
2022/02/21 00:45:48;;;;;;;;;;;;;;;18.36;55.56;100585.47;2050099;28;19922;-49
2022/02/21 00:46:48;;;;;;;;;;;;;;;18.36;55.73;100580.00;2059764;28;19945;-47
2022/02/21 00:47:48;;;;;;;;;;;;;;;18.37;55.50;100564.47;2056079;28;19921;-46
2022/02/21 00:48:48;;;;;;;;;;;;;;;18.36;55.70;100571.81;2062146;28;20556;-46
2022/02/21 00:49:49;;;;;;;;;;;;;;;18.36;55.78;100571.81;2062983;28;20605;-48
2022/02/21 00:50:49;;;;;;;;;;;;;;;18.36;55.66;100574.53;2055928;28;20279;-47
2022/02/21 00:51:49;;;;;;;;;;;;;;;18.35;55.73;100572.81;2049990;28;19921;-49
2022/02/21 00:52:51;;;;;;;;;;;;;;;18.35;55.71;100572.81;2041172;28;20088;-46
2022/02/21 00:53:51;;;;;;;;;;;;;;;18.36;55.78;100577.28;2050799;28;19921;-47
2022/02/21 00:54:51;;;;;;;;;;;;;;;18.35;55.66;100563.78;2060478;28;19928;-47
2022/02/21 00:55:52;;;;;;;;;;;;;;;18.36;55.74;100566.34;2060368;28;19921;-46
2022/02/21 00:56:52;;;;;;;;;;;;;;;18.36;55.83;100558.16;2059416;28;19921;-47
2022/02/21 00:57:52;;;;;;;;;;;;;;;18.37;55.81;100567.22;2060999;28;19995;-46
2022/02/21 00:58:53;;;;;;;;;;;;;;;18.35;55.88;100566.50;2055921;28;19976;-46
2022/02/21 00:59:53;;;;;;;;;;;;;;;18.34;55.72;100576.53;2062689;28;19928;-46
2022/02/21 01:00:53;;;;;;;;;;;;;;;18.35;55.89;100574.69;2060395;28;19968;-47
2022/02/21 01:01:53;;;;;;;;;;;;;;;18.35;55.78;100578.28;2061019;28;20621;-47
2022/02/21 01:02:54;;;;;;;;;;;;;;;18.35;55.72;100578.28;2060591;28;20276;-45
2022/02/21 01:03:54;;;;;;;;;;;;;;;18.36;55.83;100582.72;2058949;28;20403;-46
2022/02/21 01:04:54;;;;;;;;;;;;;;;18.36;55.86;100585.47;2060531;28;19921;-46
2022/02/21 01:05:54;;;;;;;;;;;;;;;18.37;55.82;100586.31;2048495;28;19957;-46
2022/02/21 01:06:55;;;;;;;;;;;;;;;18.36;55.86;100574.53;2042149;28;20368;-48
2022/02/21 01:07:56;;;;;;;;;;;;;;;18.37;55.81;100586.31;2050828;28;19922;-46
2022/02/21 01:08:56;;;;;;;;;;;;;;;18.37;55.79;100583.59;2059853;28;20120;-47
2022/02/21 01:09:56;;;;;;;;;;;;;;;18.37;55.75;100581.75;2060268;28;19944;-46
2022/02/21 01:10:57;;;;;;;;;;;;;;;18.37;55.68;100587.22;2058374;28;19922;-47
2022/02/21 01:11:57;;;;;;;;;;;;;;;18.37;55.80;100576.28;2063346;28;19964;-47
2022/02/21 01:12:57;;;;;;;;;;;;;;;18.37;55.66;100576.28;2059909;28;20338;-48
2022/02/21 01:13:58;;;;;;;;;;;;;;;18.38;55.76;100578.00;2059835;28;19926;-47
2022/02/21 01:14:58;;;;;;;;;;;;;;;18.39;55.76;100573.41;2060543;28;20005;-47
2022/02/21 01:15:59;;;;;;;;;;;;;;;18.38;55.61;100578.00;2056190;28;19976;-48
2022/02/21 01:16:59;;;;;;;;;;;;;;;18.38;55.75;100583.47;2059528;28;19921;-47
2022/02/21 01:18:00;;;;;;;;;;;;;;;18.38;55.56;100572.56;2061150;28;19921;-46
2022/02/21 01:19:00;;;;;;;;;;;;;;;18.38;55.58;100586.19;2060391;28;20328;-46
2022/02/21 01:20:06;;;;;;;;;;;;;;;18.38;55.61;100580.75;2059846;28;20018;-46
2022/02/21 01:21:07;;;;;;;;;;;;;;;18.38;55.54;100580.75;2052342;28;20324;-46
2022/02/21 01:22:08;;;;;;;;;;;;;;;18.38;55.54;100572.56;2050950;28;20033;-47
2022/02/21 01:23:08;;;;;;;;;;;;;;;18.38;55.66;100575.28;2060736;28;19925;-45
2022/02/21 01:24:09;;;;;;;;;;;;;;;18.39;55.72;100573.41;2060899;28;19953;-47
2022/02/21 01:25:09;;;;;;;;;;;;;;;18.39;55.60;100574.28;2058771;28;20312;-46
2022/02/21 01:26:10;;;;;;;;;;;;;;;18.39;55.78;100574.28;2060321;28;20522;-47
2022/02/21 01:27:14;;;;;;;;;;;;;;;18.39;55.77;100574.28;2060340;28;20506;-47
2022/02/21 01:28:14;;;;;;;;;;;;;;;18.39;55.53;100578.88;2059857;28;19918;-47
2022/02/21 01:29:14;;;;;;;;;;;;;;;18.39;55.58;100570.69;2059934;28;19984;-46
2022/02/21 01:30:15;;;;;;;;;;;;;;;18.38;55.60;100577.16;2060257;28;19925;-46
2022/02/21 01:31:15;;;;;;;;;;;;;;;18.38;55.60;100578.00;2051803;28;19921;-45
2022/02/21 01:32:15;;;;;;;;;;;;;;;18.39;55.74;100568.81;2051364;28;20291;-45
2022/02/21 01:33:16;;;;;;;;;;;;;;;18.37;55.67;100570.84;2059717;28;19975;-47
2022/02/21 01:34:16;;;;;;;;;;;;;;;18.38;55.60;100578.00;2052015;28;19930;-46
2022/02/21 01:35:17;;;;;;;;;;;;;;;18.37;55.62;100575.41;2051850;28;20249;-46
2022/02/21 01:36:17;;;;;;;;;;;;;;;18.36;55.68;100577.28;2058915;28;19960;-45
2022/02/21 01:37:17;;;;;;;;;;;;;;;18.36;55.71;100574.53;2057932;28;19921;-45
2022/02/21 01:38:17;;;;;;;;;;;;;;;18.36;55.66;100569.09;2058756;28;21570;-45
2022/02/21 01:39:19;;;;;;;;;;;;;;;18.35;55.70;100567.38;2050951;28;19921;-45
2022/02/21 01:40:21;;;;;;;;;;;;;;;18.35;55.61;100567.38;2050686;28;19926;-45
2022/02/21 01:41:21;;;;;;;;;;;;;;;18.34;55.81;100565.63;2059719;28;19968;-46
2022/02/21 01:42:22;;;;;;;;;;;;;;;18.34;55.75;100557.44;2059489;28;19929;-46
2022/02/21 01:43:22;;;;;;;;;;;;;;;18.35;55.78;100555.59;2059116;28;19929;-46
2022/02/21 01:44:33;;;;;;;;;;;;;;;18.34;55.72;100549.25;2060566;28;20175;-47
2022/02/21 01:45:33;;;;;;;;;;;;;;;18.33;55.74;100561.19;2058327;28;20332;-46
2022/02/21 01:46:35;;;;;;;;;;;;;;;18.34;55.66;100551.13;2060076;28;19913;-46
2022/02/21 01:47:35;;;;;;;;;;;;;;;18.35;55.71;100555.59;2058269;28;19917;-46
2022/02/21 01:48:36;;;;;;;;;;;;;;;18.34;55.64;100543.78;2060210;28;19913;-47
2022/02/21 01:49:36;;;;;;;;;;;;;;;18.33;55.75;100547.53;2059549;28;20513;-47
2022/02/21 01:50:36;;;;;;;;;;;;;;;18.34;55.68;100546.50;2057933;28;20383;-48
2022/02/21 01:51:37;;;;;;;;;;;;;;;18.35;55.62;100542.81;2061494;28;19925;-48
2022/02/21 01:52:38;;;;;;;;;;;;;;;18.34;55.78;100546.50;2061156;28;19925;-47
2022/02/21 01:53:38;;;;;;;;;;;;;;;18.32;55.83;100545.78;2059753;28;19925;-49
2022/02/21 01:54:39;;;;;;;;;;;;;;;18.33;55.82;100530.28;2059798;28;19925;-46
2022/02/21 01:55:39;;;;;;;;;;;;;;;18.31;55.77;100533.16;2059328;28;19932;-47
2022/02/21 01:56:40;;;;;;;;;;;;;;;18.31;55.82;100537.75;2060138;28;19927;-46
2022/02/21 01:57:41;;;;;;;;;;;;;;;18.31;55.78;100530.41;2060875;28;19924;-47
2022/02/21 01:58:41;;;;;;;;;;;;;;;18.29;55.90;100524.22;2058897;28;19921;-46
2022/02/21 01:59:42;;;;;;;;;;;;;;;18.29;55.78;100517.91;2060309;28;19944;-46
2022/02/21 02:00:42;;;;;;;;;;;;;;;18.29;55.96;100524.22;2058437;28;19921;-46
2022/02/21 02:01:42;;;;;;;;;;;;;;;18.30;55.93;100520.50;2057950;28;19917;-46
2022/02/21 02:02:45;;;;;;;;;;;;;;;18.30;55.87;100509.59;2060077;28;19925;-46
2022/02/21 02:03:47;;;;;;;;;;;;;;;18.29;55.83;100501.53;2061102;28;20777;-47
2022/02/21 02:04:47;;;;;;;;;;;;;;;18.28;55.99;100495.22;2056701;28;19917;-47
2022/02/21 02:05:47;;;;;;;;;;;;;;;18.28;55.94;100499.81;2061395;28;19925;-47
2022/02/21 02:06:48;;;;;;;;;;;;;;;18.28;55.82;100500.66;2062498;28;19917;-46
2022/02/21 02:07:48;;;;;;;;;;;;;;;18.28;55.88;100500.66;2059209;28;19964;-46
2022/02/21 02:08:48;;;;;;;;;;;;;;;18.28;55.76;100502.53;2059916;28;19921;-47
2022/02/21 02:09:49;;;;;;;;;;;;;;;18.28;55.87;100506.13;2056159;28;20036;-47
2022/02/21 02:10:49;;;;;;;;;;;;;;;18.29;55.95;100507.84;2059852;28;20372;-46
2022/02/21 02:11:50;;;;;;;;;;;;;;;18.29;55.89;100502.38;2059386;28;20744;-49
2022/02/21 02:12:51;;;;;;;;;;;;;;;18.28;55.96;100495.22;2059753;28;19957;-46
2022/02/21 02:13:51;;;;;;;;;;;;;;;18.30;55.88;100504.13;2060121;28;20026;-47
2022/02/21 02:14:52;;;;;;;;;;;;;;;18.30;55.79;100495.94;2058870;28;20264;-47
2022/02/21 02:15:53;;;;;;;;;;;;;;;18.31;55.75;100494.94;2057770;28;19929;-46
2022/02/21 02:16:54;;;;;;;;;;;;;;;18.31;55.82;100499.53;2059130;28;20337;-47
2022/02/21 02:17:54;;;;;;;;;;;;;;;18.31;55.85;100489.47;2058595;28;19973;-48
2022/02/21 02:18:54;;;;;;;;;;;;;;;18.32;55.86;100495.78;2058694;28;19932;-47
2022/02/21 02:19:54;;;;;;;;;;;;;;;18.32;55.81;100499.38;2055572;28;20360;-48
2022/02/21 02:20:55;;;;;;;;;;;;;;;18.31;55.86;100494.94;2063484;28;19917;-47
2022/02/21 02:21:56;;;;;;;;;;;;;;;18.32;55.75;100499.38;2058445;28;19921;-47
2022/02/21 02:22:56;;;;;;;;;;;;;;;18.32;55.61;100501.25;2057088;28;19948;-50
2022/02/21 02:23:56;;;;;;;;;;;;;;;18.34;55.62;100500.13;2050595;28;20333;-46
2022/02/21 02:24:57;;;;;;;;;;;;;;;18.34;55.66;100485.63;2051264;28;19922;-46
2022/02/21 02:25:57;;;;;;;;;;;;;;;18.33;55.85;100487.47;2059396;28;19917;-47
2022/02/21 02:26:57;;;;;;;;;;;;;;;18.33;55.83;100487.47;2057968;28;19939;-47
2022/02/21 02:27:58;;;;;;;;;;;;;;;18.33;55.68;100492.94;2055908;28;19961;-46
2022/02/21 02:28:58;;;;;;;;;;;;;;;18.32;55.76;100488.47;2056498;28;20906;-46
2022/02/21 02:29:59;;;;;;;;;;;;;;;18.33;55.81;100482.03;2059276;28;19925;-46
2022/02/21 02:30:59;;;;;;;;;;;;;;;18.33;55.73;100490.22;2070084;28;21257;-47
2022/02/21 02:32:00;;;;;;;;;;;;;;;18.33;55.98;100483.91;2063157;28;19979;-46
2022/02/21 02:33:00;;;;;;;;;;;;;;;18.33;55.81;100481.16;2059150;28;19977;-46
2022/02/21 02:34:01;;;;;;;;;;;;;;;18.33;55.74;100482.03;2059622;28;19985;-45
2022/02/21 02:35:01;;;;;;;;;;;;;;;18.32;55.83;100474.81;2058408;28;19926;-48
2022/02/21 02:36:01;;;;;;;;;;;;;;;18.33;55.83;100475.72;2061344;28;19985;-49
2022/02/21 02:37:02;;;;;;;;;;;;;;;18.33;55.76;100471.09;2059597;28;19929;-48
2022/02/21 02:38:02;;;;;;;;;;;;;;;18.33;55.75;100475.72;2059814;28;19921;-46
2022/02/21 02:39:02;;;;;;;;;;;;;;;18.33;55.73;100464.78;2058555;28;20398;-47
2022/02/21 02:40:03;;;;;;;;;;;;;;;18.32;55.82;100472.09;2058939;28;19952;-47
2022/02/21 02:41:10;;;;;;;;;;;;;;;18.32;55.72;100463.91;2059101;28;19917;-46
2022/02/21 02:42:10;;;;;;;;;;;;;;;18.33;55.86;100465.66;2060209;28;19921;-46
2022/02/21 02:43:12;;;;;;;;;;;;;;;18.33;55.68;100475.72;2060019;28;20275;-47
2022/02/21 02:44:12;;;;;;;;;;;;;;;18.33;55.67;100464.78;2059707;28;19983;-46
2022/02/21 02:45:12;;;;;;;;;;;;;;;18.33;55.81;100471.09;2058754;28;19971;-46
2022/02/21 02:46:13;;;;;;;;;;;;;;;18.32;55.89;100455.72;2059830;28;19924;-46
2022/02/21 02:47:13;;;;;;;;;;;;;;;18.32;55.65;100453.00;2059913;28;19913;-47
2022/02/21 02:48:14;;;;;;;;;;;;;;;18.34;55.60;100455.59;2058869;28;20348;-46
2022/02/21 02:49:14;;;;;;;;;;;;;;;18.33;55.81;100460.19;2057023;28;19961;-48
2022/02/21 02:50:14;;;;;;;;;;;;;;;18.33;55.61;100454.72;2059572;28;20267;-47
2022/02/21 02:51:15;;;;;;;;;;;;;;;18.32;55.60;100461.19;2058664;28;20772;-46
2022/02/21 02:52:15;;;;;;;;;;;;;;;18.31;55.79;100454.00;2057325;28;20261;-48
2022/02/21 02:53:15;;;;;;;;;;;;;;;18.32;55.73;100453.00;2060383;28;19924;-46
2022/02/21 02:54:16;;;;;;;;;;;;;;;18.33;55.60;100453.88;2057934;28;19969;-47
2022/02/21 02:55:16;;;;;;;;;;;;;;;18.31;55.62;100451.28;2060180;28;20138;-46
2022/02/21 02:56:16;;;;;;;;;;;;;;;18.29;55.69;100452.41;2058998;28;20198;-46
2022/02/21 02:57:16;;;;;;;;;;;;;;;18.32;55.79;100446.66;2058240;28;20288;-46
2022/02/21 02:58:17;;;;;;;;;;;;;;;18.30;55.77;100446.81;2060128;28;20139;-47
2022/02/21 02:59:17;;;;;;;;;;;;;;;18.29;55.84;100447.81;2059195;28;19928;-45
2022/02/21 03:00:17;;;;;;;;;;;;;;;18.29;55.80;100446.94;2059928;28;20426;-47
2022/02/21 03:01:18;;;;;;;;;;;;;;;18.28;55.63;100446.09;2059193;28;19917;-47
2022/02/21 03:02:18;;;;;;;;;;;;;;;18.29;55.84;100447.81;2058545;28;19968;-46
2022/02/21 03:03:19;;;;;;;;;;;;;;;18.28;55.83;100451.56;2060104;28;19989;-46
2022/02/21 03:04:19;;;;;;;;;;;;;;;18.28;55.70;100457.00;2056301;28;20015;-48
2022/02/21 03:05:20;;;;;;;;;;;;;;;18.27;55.74;100446.22;2058961;28;19921;-46
2022/02/21 03:06:21;;;;;;;;;;;;;;;18.26;55.76;100453.53;2047403;28;19929;-46
2022/02/21 03:07:21;;;;;;;;;;;;;;;18.27;55.90;100446.22;2049017;28;20459;-45
2022/02/21 03:08:22;;;;;;;;;;;;;;;18.26;55.72;100449.97;2050793;28;20014;-45
2022/02/21 03:09:22;;;;;;;;;;;;;;;18.25;55.70;100440.91;2051158;28;20052;-46
2022/02/21 03:10:22;;;;;;;;;;;;;;;18.24;55.80;100441.91;2060102;28;20236;-46
2022/02/21 03:11:22;;;;;;;;;;;;;;;18.25;55.74;100443.66;2059318;28;19917;-46
2022/02/21 03:12:23;;;;;;;;;;;;;;;18.25;55.91;100440.91;2058773;28;19920;-47
2022/02/21 03:13:23;;;;;;;;;;;;;;;18.25;56.00;100432.72;2051086;28;19969;-47
2022/02/21 03:14:24;;;;;;;;;;;;;;;18.25;55.72;100424.53;2049751;28;19921;-47
2022/02/21 03:15:24;;;;;;;;;;;;;;;18.24;55.79;100428.25;2060128;28;19925;-47
2022/02/21 03:16:26;;;;;;;;;;;;;;;18.25;55.90;100430.00;2055939;28;20000;-46
2022/02/21 03:17:26;;;;;;;;;;;;;;;18.25;55.82;100423.66;2059568;28;19975;-46
2022/02/21 03:18:26;;;;;;;;;;;;;;;18.25;55.75;100423.66;2055657;28;20291;-46
2022/02/21 03:19:27;;;;;;;;;;;;;;;18.25;55.87;100434.56;2059926;28;19913;-46
2022/02/21 03:20:27;;;;;;;;;;;;;;;18.25;55.72;100427.28;2058535;28;19926;-46
2022/02/21 03:21:28;;;;;;;;;;;;;;;18.26;55.86;100420.81;2057102;28;19937;-47
2022/02/21 03:22:28;;;;;;;;;;;;;;;18.26;55.64;100417.22;2060365;28;19924;-46
2022/02/21 03:23:28;;;;;;;;;;;;;;;18.26;55.73;100409.88;2059200;28;19921;-47
2022/02/21 03:24:29;;;;;;;;;;;;;;;18.27;55.84;100408.00;2050893;28;19997;-46
2022/02/21 03:25:29;;;;;;;;;;;;;;;18.27;55.71;100400.69;2044718;28;20344;-46
2022/02/21 03:26:30;;;;;;;;;;;;;;;18.27;55.79;100399.81;2042488;28;20302;-48
2022/02/21 03:27:30;;;;;;;;;;;;;;;18.27;55.70;100408.00;2043957;28;19922;-47
2022/02/21 03:28:31;;;;;;;;;;;;;;;18.28;55.70;100407.88;2058098;28;19967;-47
2022/02/21 03:29:32;;;;;;;;;;;;;;;18.28;55.74;100407.88;2060083;28;19921;-47
2022/02/21 03:30:32;;;;;;;;;;;;;;;18.28;55.79;100402.44;2054268;28;19922;-47
2022/02/21 03:31:33;;;;;;;;;;;;;;;18.28;55.71;100394.25;2062257;28;20362;-47
2022/02/21 03:32:33;;;;;;;;;;;;;;;18.28;55.68;100396.97;2052896;28;19928;-47
2022/02/21 03:33:33;;;;;;;;;;;;;;;18.28;55.77;100402.44;2058445;28;19959;-47
2022/02/21 03:34:34;;;;;;;;;;;;;;;18.28;55.73;100396.97;2056418;28;20430;-48
2022/02/21 03:35:35;;;;;;;;;;;;;;;18.28;55.42;100394.25;2060826;28;19930;-47
2022/02/21 03:36:35;;;;;;;;;;;;;;;18.29;55.73;100397.84;2057989;28;20319;-47
2022/02/21 03:37:36;;;;;;;;;;;;;;;18.28;55.60;100399.69;2058655;28;19921;-47
2022/02/21 03:38:37;;;;;;;;;;;;;;;18.28;55.72;100393.38;2059060;28;20388;-47
2022/02/21 03:39:37;;;;;;;;;;;;;;;18.27;55.73;100392.50;2051911;28;20300;-46
2022/02/21 03:40:37;;;;;;;;;;;;;;;18.28;55.73;100390.66;2051443;28;20168;-47
2022/02/21 03:41:38;;;;;;;;;;;;;;;18.27;55.71;100389.78;2059450;28;19918;-47
2022/02/21 03:42:38;;;;;;;;;;;;;;;18.28;55.60;100386.06;2057044;28;19975;-46
2022/02/21 03:43:38;;;;;;;;;;;;;;;18.27;55.62;100384.31;2057196;28;19930;-47
2022/02/21 03:44:41;;;;;;;;;;;;;;;18.28;55.67;100386.06;2058904;28;20699;-47
2022/02/21 03:45:41;;;;;;;;;;;;;;;18.27;55.68;100384.31;2056822;28;19927;-46
2022/02/21 03:46:43;;;;;;;;;;;;;;;18.28;55.56;100379.75;2059143;28;19959;-46
2022/02/21 03:47:43;;;;;;;;;;;;;;;18.25;55.72;100380.88;2061178;28;19980;-46
2022/02/21 03:48:43;;;;;;;;;;;;;;;18.26;55.76;100385.31;2053925;28;19910;-47
2022/02/21 03:49:44;;;;;;;;;;;;;;;18.27;55.57;100384.31;2059588;28;19922;-46
2022/02/21 03:50:44;;;;;;;;;;;;;;;18.27;55.66;100378.84;2058275;28;19913;-46
2022/02/21 03:51:45;;;;;;;;;;;;;;;18.26;55.61;100377.16;2058679;28;19932;-47
2022/02/21 03:52:45;;;;;;;;;;;;;;;18.26;55.59;100370.81;2058662;28;19928;-46
2022/02/21 03:53:45;;;;;;;;;;;;;;;18.24;55.58;100362.75;2057372;28;20350;-47
2022/02/21 03:54:46;;;;;;;;;;;;;;;18.25;55.62;100374.53;2059250;28;19927;-47
2022/02/21 03:55:46;;;;;;;;;;;;;;;18.25;55.59;100364.50;2060578;28;19956;-47
2022/02/21 03:56:47;;;;;;;;;;;;;;;18.26;55.59;100360.78;2058818;28;19925;-46
2022/02/21 03:57:47;;;;;;;;;;;;;;;18.25;55.72;100364.50;2058317;28;19979;-47
2022/02/21 03:58:47;;;;;;;;;;;;;;;18.24;55.76;100360.03;2059011;28;19925;-49
2022/02/21 03:59:49;;;;;;;;;;;;;;;18.24;55.67;100362.75;2059045;28;19921;-47
2022/02/21 04:00:49;;;;;;;;;;;;;;;18.23;55.66;100363.78;2060151;28;19921;-46
2022/02/21 04:01:50;;;;;;;;;;;;;;;18.21;55.66;100363.03;2060351;28;20379;-49
2022/02/21 04:02:50;;;;;;;;;;;;;;;18.21;55.69;100363.03;2057244;28;19925;-46
2022/02/21 04:03:50;;;;;;;;;;;;;;;18.20;55.75;100353.13;2057245;28;20138;-46
2022/02/21 04:04:51;;;;;;;;;;;;;;;18.21;55.77;100365.78;2058642;28;20340;-46
2022/02/21 04:05:51;;;;;;;;;;;;;;;18.20;55.72;100367.66;2060314;28;19914;-46
2022/02/21 04:06:51;;;;;;;;;;;;;;;18.20;55.80;100359.47;2058419;28;20298;-50
2022/02/21 04:07:52;;;;;;;;;;;;;;;18.20;55.84;100358.56;2063039;28;19917;-46
2022/02/21 04:08:52;;;;;;;;;;;;;;;18.20;55.88;100356.72;2057838;28;19921;-47
2022/02/21 04:09:52;;;;;;;;;;;;;;;18.21;55.70;100357.59;2056311;28;19922;-47
2022/02/21 04:10:52;;;;;;;;;;;;;;;18.21;55.79;100363.03;2056986;28;20303;-47
2022/02/21 04:11:53;;;;;;;;;;;;;;;18.20;55.69;100362.19;2058511;28;19922;-46
2022/02/21 04:12:54;;;;;;;;;;;;;;;18.22;55.65;100359.31;2055482;28;19914;-47
2022/02/21 04:13:54;;;;;;;;;;;;;;;18.21;55.78;100352.13;2060442;28;20416;-47
2022/02/21 04:14:54;;;;;;;;;;;;;;;18.22;55.63;100359.31;2058502;28;19925;-47
2022/02/21 04:15:55;;;;;;;;;;;;;;;18.21;55.71;100361.19;2058915;28;20651;-48
2022/02/21 04:16:56;;;;;;;;;;;;;;;18.21;55.63;100352.13;2060085;28;20210;-47
2022/02/21 04:17:56;;;;;;;;;;;;;;;18.21;55.78;100353.00;2059899;28;19920;-46
2022/02/21 04:18:57;;;;;;;;;;;;;;;18.21;55.69;100349.41;2056452;28;19989;-46
2022/02/21 04:19:57;;;;;;;;;;;;;;;18.22;55.84;100351.13;2057712;28;19921;-46
2022/02/21 04:20:57;;;;;;;;;;;;;;;18.23;55.52;100349.25;2057749;28;19967;-47
2022/02/21 04:21:59;;;;;;;;;;;;;;;18.23;55.71;100350.13;2059332;28;20208;-46
2022/02/21 04:22:59;;;;;;;;;;;;;;;18.24;55.64;100340.94;2058506;28;20407;-46
2022/02/21 04:23:59;;;;;;;;;;;;;;;18.24;55.61;100345.53;2057241;28;19964;-47
2022/02/21 04:24:59;;;;;;;;;;;;;;;18.25;55.54;100342.69;2050983;28;20282;-46
2022/02/21 04:26:00;;;;;;;;;;;;;;;18.24;55.50;100340.94;2050376;28;20739;-46
2022/02/21 04:27:00;;;;;;;;;;;;;;;18.25;55.55;100331.78;2060768;28;19921;-47
2022/02/21 04:28:01;;;;;;;;;;;;;;;18.25;55.65;100331.78;2056844;28;20242;-45
2022/02/21 04:29:01;;;;;;;;;;;;;;;18.25;55.62;100320.84;2058678;28;20618;-46
2022/02/21 04:30:01;;;;;;;;;;;;;;;18.25;55.61;100320.84;2060386;28;20621;-46
2022/02/21 04:31:02;;;;;;;;;;;;;;;18.24;55.49;100324.56;2057099;28;20429;-46
2022/02/21 04:32:07;;;;;;;;;;;;;;;18.24;55.57;100321.84;2053445;28;19925;-46
2022/02/21 04:33:07;;;;;;;;;;;;;;;18.24;55.66;100330.03;2052575;28;19922;-47
2022/02/21 04:34:07;;;;;;;;;;;;;;;18.24;55.60;100319.09;2059175;28;20354;-47
2022/02/21 04:35:08;;;;;;;;;;;;;;;18.25;55.41;100323.59;2061061;28;20348;-47
2022/02/21 04:36:08;;;;;;;;;;;;;;;18.25;55.46;100319.97;2060826;28;19921;-46
2022/02/21 04:37:09;;;;;;;;;;;;;;;18.25;55.62;100319.97;2059946;28;19928;-46
2022/02/21 04:38:10;;;;;;;;;;;;;;;18.25;55.53;100326.31;2060953;28;19959;-46
2022/02/21 04:39:10;;;;;;;;;;;;;;;18.25;55.54;100326.31;2052195;28;20364;-47
2022/02/21 04:40:12;;;;;;;;;;;;;;;18.25;55.56;100320.84;2054437;28;19933;-46
2022/02/21 04:41:13;;;;;;;;;;;;;;;18.25;55.37;100323.59;2061355;28;19921;-46
2022/02/21 04:42:13;;;;;;;;;;;;;;;18.25;55.34;100319.97;2057252;28;19965;-46
2022/02/21 04:43:13;;;;;;;;;;;;;;;18.24;55.45;100319.09;2060307;28;19939;-47
2022/02/21 04:44:15;;;;;;;;;;;;;;;18.25;55.39;100323.59;2060172;28;20020;-45
2022/02/21 04:45:15;;;;;;;;;;;;;;;18.24;55.49;100321.84;2059551;28;20272;-48
2022/02/21 04:46:16;;;;;;;;;;;;;;;18.26;55.57;100318.97;2062176;28;19918;-46
2022/02/21 04:47:16;;;;;;;;;;;;;;;18.26;55.40;100321.72;2058532;28;19917;-47
2022/02/21 04:48:16;;;;;;;;;;;;;;;18.25;55.45;100314.50;2061305;28;19986;-46
2022/02/21 04:49:17;;;;;;;;;;;;;;;18.26;55.50;100324.44;2060059;28;20120;-45
2022/02/21 04:50:18;;;;;;;;;;;;;;;18.26;55.41;100321.72;2060981;28;20548;-47
2022/02/21 04:51:18;;;;;;;;;;;;;;;18.26;55.36;100317.09;2061580;28;19964;-45
2022/02/21 04:52:18;;;;;;;;;;;;;;;18.27;55.44;100324.28;2059167;28;20348;-46
2022/02/21 04:53:19;;;;;;;;;;;;;;;18.27;55.50;100316.09;2060364;28;20571;-46
2022/02/21 04:54:19;;;;;;;;;;;;;;;18.28;55.35;100319.72;2060768;28;19968;-45
2022/02/21 04:55:19;;;;;;;;;;;;;;;18.27;55.42;100312.50;2060310;28;20028;-46
2022/02/21 04:56:19;;;;;;;;;;;;;;;18.26;55.49;100328.03;2060301;28;19921;-47
2022/02/21 04:57:20;;;;;;;;;;;;;;;18.27;55.46;100323.41;2051827;28;19932;-47
2022/02/21 04:58:20;;;;;;;;;;;;;;;18.27;55.27;100317.97;2053846;28;19957;-47
2022/02/21 04:59:20;;;;;;;;;;;;;;;18.27;55.21;100312.50;2058646;28;19967;-46
2022/02/21 05:00:20;;;;;;;;;;;;;;;18.27;55.21;100324.28;2059505;28;19932;-47
2022/02/21 05:01:21;;;;;;;;;;;;;;;18.26;55.46;100317.09;2060487;28;20253;-51
2022/02/21 05:02:21;;;;;;;;;;;;;;;18.25;55.21;100315.41;2062027;28;20268;-47
2022/02/21 05:03:22;;;;;;;;;;;;;;;18.25;55.39;100309.94;2060265;28;20025;-48
2022/02/21 05:04:22;;;;;;;;;;;;;;;18.25;55.25;100315.41;2060585;28;20279;-46
2022/02/21 05:05:22;;;;;;;;;;;;;;;18.23;55.48;100311.94;2060665;28;19917;-47
2022/02/21 05:06:22;;;;;;;;;;;;;;;18.24;55.25;100308.19;2060000;28;19914;-47
2022/02/21 05:07:23;;;;;;;;;;;;;;;18.23;55.42;100309.22;2060632;28;19921;-46
2022/02/21 05:08:25;;;;;;;;;;;;;;;18.22;55.33;100304.72;2058145;28;19931;-46
2022/02/21 05:09:25;;;;;;;;;;;;;;;18.22;55.45;100304.72;2059243;28;19923;-47
2022/02/21 05:10:26;;;;;;;;;;;;;;;18.21;55.32;100303.03;2060840;28;19921;-46